sensor_id;sensor_type;location;lat;lon;timestamp;pressure;altitude;pressure_sealevel;temperature;humidity
9750;BME280;4914;43.218;27.908;2022-11-15T00:02:14;101637.47;;;9.82;100.00
9750;BME280;4914;43.218;27.908;2022-11-15T00:04:41;101628.31;;;9.87;100.00
9750;BME280;4914;43.218;27.908;2022-11-15T00:07:08;101631.44;;;9.94;100.00
9750;BME280;4914;43.218;27.908;2022-11-15T00:09:35;101638.13;;;9.85;100.00
9750;BME280;4914;43.218;27.908;2022-11-15T00:12:03;101637.00;;;9.89;100.00
9750;BME280;4914;43.218;27.908;2022-11-15T00:14:30;101641.25;;;9.78;100.00
9750;BME280;4914;43.218;27.908;2022-11-15T00:16:57;101639.00;;;9.86;100.00
9750;BME280;4914;43.218;27.908;2022-11-15T00:19:24;101627.59;;;9.84;100.00
9750;BME280;4914;43.218;27.908;2022-11-15T00:21:50;101634.97;;;9.79;100.00
9750;BME280;4914;43.218;27.908;2022-11-15T00:24:17;101630.44;;;9.81;100.00
9750;BME280;4914;43.218;27.908;2022-11-15T00:26:44;101625.31;;;9.78;100.00
9750;BME280;4914;43.218;27.908;2022-11-15T00:29:12;101628.56;;;9.83;100.00
9750;BME280;4914;43.218;27.908;2022-11-15T00:31:39;101623.25;;;9.83;100.00
9750;BME280;4914;43.218;27.908;2022-11-15T00:34:06;101627.19;;;9.76;100.00
9750;BME280;4914;43.218;27.908;2022-11-15T00:36:33;101620.03;;;9.78;100.00
9750;BME280;4914;43.218;27.908;2022-11-15T00:39:00;101611.94;;;9.79;100.00
9750;BME280;4914;43.218;27.908;2022-11-15T00:41:27;101615.91;;;9.88;100.00
9750;BME280;4914;43.218;27.908;2022-11-15T00:43:54;101613.41;;;9.85;100.00
9750;BME280;4914;43.218;27.908;2022-11-15T00:46:22;101608.28;;;9.82;100.00
9750;BME280;4914;43.218;27.908;2022-11-15T00:48:49;101612.84;;;9.94;100.00
9750;BME280;4914;43.218;27.908;2022-11-15T00:51:16;101612.50;;;10.00;100.00
9750;BME280;4914;43.218;27.908;2022-11-15T00:53:43;101613.44;;;9.99;100.00
9750;BME280;4914;43.218;27.908;2022-11-15T00:56:10;101614.50;;;9.96;100.00
9750;BME280;4914;43.218;27.908;2022-11-15T00:58:36;101605.94;;;9.91;100.00
9750;BME280;4914;43.218;27.908;2022-11-15T01:01:08;101602.44;;;9.91;100.00
9750;BME280;4914;43.218;27.908;2022-11-15T01:03:37;101603.66;;;9.85;100.00
9750;BME280;4914;43.218;27.908;2022-11-15T01:06:06;101596.53;;;9.86;100.00
9750;BME280;4914;43.218;27.908;2022-11-15T01:08:33;101598.59;;;9.81;100.00
9750;BME280;4914;43.218;27.908;2022-11-15T01:11:01;101599.75;;;9.77;100.00
9750;BME280;4914;43.218;27.908;2022-11-15T01:13:30;101598.81;;;9.78;100.00
9750;BME280;4914;43.218;27.908;2022-11-15T01:15:57;101594.44;;;9.77;100.00
9750;BME280;4914;43.218;27.908;2022-11-15T01:18:23;101601.84;;;9.86;100.00
9750;BME280;4914;43.218;27.908;2022-11-15T01:20:52;101601.53;;;9.76;100.00
9750;BME280;4914;43.218;27.908;2022-11-15T01:23:19;101603.56;;;9.87;100.00
9750;BME280;4914;43.218;27.908;2022-11-15T01:25:45;101602.03;;;9.83;100.00
9750;BME280;4914;43.218;27.908;2022-11-15T01:28:12;101599.56;;;9.80;100.00
9750;BME280;4914;43.218;27.908;2022-11-15T01:30:39;101604.97;;;9.78;100.00
9750;BME280;4914;43.218;27.908;2022-11-15T01:33:06;101591.78;;;9.77;100.00
9750;BME280;4914;43.218;27.908;2022-11-15T01:35:33;101598.81;;;9.78;100.00
9750;BME280;4914;43.218;27.908;2022-11-15T01:38:01;101604.59;;;9.84;100.00
9750;BME280;4914;43.218;27.908;2022-11-15T01:40:28;101599.19;;;9.86;100.00
9750;BME280;4914;43.218;27.908;2022-11-15T01:42:55;101596.75;;;9.83;100.00
9750;BME280;4914;43.218;27.908;2022-11-15T01:45:21;101589.78;;;9.80;100.00
9750;BME280;4914;43.218;27.908;2022-11-15T01:47:51;101592.13;;;9.71;100.00
9750;BME280;4914;43.218;27.908;2022-11-15T01:50:21;101597.63;;;9.68;100.00
9750;BME280;4914;43.218;27.908;2022-11-15T01:52:48;101582.72;;;9.65;100.00
9750;BME280;4914;43.218;27.908;2022-11-15T01:55:20;101588.22;;;9.62;100.00
9750;BME280;4914;43.218;27.908;2022-11-15T01:57:50;101581.72;;;9.68;100.00
9750;BME280;4914;43.218;27.908;2022-11-15T02:00:19;101577.94;;;9.72;100.00
9750;BME280;4914;43.218;27.908;2022-11-15T02:02:45;101580.00;;;9.67;100.00
9750;BME280;4914;43.218;27.908;2022-11-15T02:05:12;101575.69;;;9.64;100.00
9750;BME280;4914;43.218;27.908;2022-11-15T02:07:39;101572.13;;;9.65;100.00
9750;BME280;4914;43.218;27.908;2022-11-15T02:10:09;101577.25;;;9.68;100.00
9750;BME280;4914;43.218;27.908;2022-11-15T02:12:37;101580.31;;;9.76;100.00
9750;BME280;4914;43.218;27.908;2022-11-15T02:15:06;101577.59;;;9.78;100.00
9750;BME280;4914;43.218;27.908;2022-11-15T02:17:47;101569.91;;;9.73;100.00
9750;BME280;4914;43.218;27.908;2022-11-15T02:20:38;101570.91;;;9.71;100.00
9750;BME280;4914;43.218;27.908;2022-11-15T02:23:24;101572.63;;;9.72;100.00
9750;BME280;4914;43.218;27.908;2022-11-15T02:26:11;101573.13;;;9.78;100.00
9750;BME280;4914;43.218;27.908;2022-11-15T02:28:51;101574.16;;;9.76;100.00
9750;BME280;4914;43.218;27.908;2022-11-15T02:31:28;101570.72;;;9.74;100.00
9750;BME280;4914;43.218;27.908;2022-11-15T02:34:04;101570.72;;;9.74;100.00
9750;BME280;4914;43.218;27.908;2022-11-15T02:36:40;101568.84;;;9.76;100.00
9750;BME280;4914;43.218;27.908;2022-11-15T02:39:14;101569.91;;;9.73;100.00
9750;BME280;4914;43.218;27.908;2022-11-15T02:41:49;101574.16;;;9.76;100.00
9750;BME280;4914;43.218;27.908;2022-11-15T02:44:23;101563.72;;;9.73;100.00
9750;BME280;4914;43.218;27.908;2022-11-15T02:46:54;101566.19;;;9.76;100.00
9750;BME280;4914;43.218;27.908;2022-11-15T02:49:45;101569.03;;;9.73;100.00
9750;BME280;4914;43.218;27.908;2022-11-15T02:52:14;101554.81;;;9.74;100.00
9750;BME280;4914;43.218;27.908;2022-11-15T02:54:42;101557.22;;;9.78;100.00
9750;BME280;4914;43.218;27.908;2022-11-15T02:57:14;101551.06;;;9.78;100.00
9750;BME280;4914;43.218;27.908;2022-11-15T03:00:04;101545.38;;;9.84;100.00
9750;BME280;4914;43.218;27.908;2022-11-15T03:02:49;101545.47;;;9.82;100.00
9750;BME280;4914;43.218;27.908;2022-11-15T03:05:26;101543.50;;;9.86;100.00
9750;BME280;4914;43.218;27.908;2022-11-15T03:08:02;101548.25;;;9.95;100.00
9750;BME280;4914;43.218;27.908;2022-11-15T03:10:40;101551.69;;;9.97;100.00
9750;BME280;4914;43.218;27.908;2022-11-15T03:13:16;101546.91;;;9.88;100.00
9750;BME280;4914;43.218;27.908;2022-11-15T03:15:54;101540.56;;;9.90;100.00
9750;BME280;4914;43.218;27.908;2022-11-15T03:18:30;101544.06;;;9.91;100.00
9750;BME280;4914;43.218;27.908;2022-11-15T03:21:00;101542.34;;;9.90;100.00
9750;BME280;4914;43.218;27.908;2022-11-15T03:23:30;101536.13;;;9.91;100.00
9750;BME280;4914;43.218;27.908;2022-11-15T03:25:59;101532.03;;;9.85;100.00
9750;BME280;4914;43.218;27.908;2022-11-15T03:28:31;101538.09;;;9.87;100.00
9750;BME280;4914;43.218;27.908;2022-11-15T03:31:00;101534.75;;;9.84;100.00
9750;BME280;4914;43.218;27.908;2022-11-15T03:33:50;101536.31;;;9.88;100.00
9750;BME280;4914;43.218;27.908;2022-11-15T03:36:19;101525.78;;;9.86;100.00
9750;BME280;4914;43.218;27.908;2022-11-15T03:38:47;101522.28;;;9.86;100.00
9750;BME280;4914;43.218;27.908;2022-11-15T03:41:20;101526.75;;;9.99;100.00
9750;BME280;4914;43.218;27.908;2022-11-15T03:43:53;101519.72;;;9.98;100.00
9750;BME280;4914;43.218;27.908;2022-11-15T03:46:25;101510.09;;;9.97;100.00
9750;BME280;4914;43.218;27.908;2022-11-15T03:48:59;101513.09;;;9.91;100.00
9750;BME280;4914;43.218;27.908;2022-11-15T03:51:27;101514.91;;;9.91;100.00
9750;BME280;4914;43.218;27.908;2022-11-15T03:53:55;101506.75;;;9.94;100.00
9750;BME280;4914;43.218;27.908;2022-11-15T03:56:22;101508.66;;;9.92;100.00
9750;BME280;4914;43.218;27.908;2022-11-15T03:58:49;101498.13;;;9.90;100.00
9750;BME280;4914;43.218;27.908;2022-11-15T04:01:15;101505.03;;;9.93;100.00
9750;BME280;4914;43.218;27.908;2022-11-15T04:03:42;101508.22;;;9.84;100.00
9750;BME280;4914;43.218;27.908;2022-11-15T04:06:11;101511.84;;;9.83;100.00
9750;BME280;4914;43.218;27.908;2022-11-15T04:08:37;101504.72;;;9.83;100.00
9750;BME280;4914;43.218;27.908;2022-11-15T04:11:04;101497.47;;;9.87;100.00
9750;BME280;4914;43.218;27.908;2022-11-15T04:13:31;101501.72;;;9.89;100.00
9750;BME280;4914;43.218;27.908;2022-11-15T04:15:58;101502.56;;;9.90;100.00
9750;BME280;4914;43.218;27.908;2022-11-15T04:18:25;101504.47;;;9.88;100.00
9750;BME280;4914;43.218;27.908;2022-11-15T04:20:51;101509.19;;;9.83;100.00
9750;BME280;4914;43.218;27.908;2022-11-15T04:23:37;101502.25;;;9.80;100.00
9750;BME280;4914;43.218;27.908;2022-11-15T04:26:20;101497.03;;;9.79;100.00
9750;BME280;4914;43.218;27.908;2022-11-15T04:28:49;101503.41;;;9.76;100.00
9750;BME280;4914;43.218;27.908;2022-11-15T04:31:33;101496.22;;;9.78;100.00
9750;BME280;4914;43.218;27.908;2022-11-15T04:34:00;101503.97;;;9.81;100.00
9750;BME280;4914;43.218;27.908;2022-11-15T04:36:27;101497.91;;;9.79;100.00
9750;BME280;4914;43.218;27.908;2022-11-15T04:39:13;101495.53;;;9.89;100.00
9750;BME280;4914;43.218;27.908;2022-11-15T04:41:40;101498.66;;;9.81;100.00
9750;BME280;4914;43.218;27.908;2022-11-15T04:44:06;101483.03;;;9.77;100.00
9750;BME280;4914;43.218;27.908;2022-11-15T04:46:33;101495.94;;;9.83;100.00
9750;BME280;4914;43.218;27.908;2022-11-15T04:49:00;101486.91;;;9.71;100.00
9750;BME280;4914;43.218;27.908;2022-11-15T04:51:27;101490.41;;;9.72;100.00
9750;BME280;4914;43.218;27.908;2022-11-15T04:53:54;101494.00;;;9.71;100.00
9750;BME280;4914;43.218;27.908;2022-11-15T04:56:22;101494.19;;;9.68;100.00
9750;BME280;4914;43.218;27.908;2022-11-15T04:58:49;101496.16;;;9.64;100.00
9750;BME280;4914;43.218;27.908;2022-11-15T05:01:16;101496.84;;;9.68;100.00
9750;BME280;4914;43.218;27.908;2022-11-15T05:03:43;101489.63;;;9.70;100.00
9750;BME280;4914;43.218;27.908;2022-11-15T05:06:27;101487.19;;;9.67;100.00
9750;BME280;4914;43.218;27.908;2022-11-15T05:08:55;101493.25;;;9.69;100.00
9750;BME280;4914;43.218;27.908;2022-11-15T05:11:24;101494.03;;;9.85;100.00
9750;BME280;4914;43.218;27.908;2022-11-15T05:13:52;101501.41;;;9.80;100.00
9750;BME280;4914;43.218;27.908;2022-11-15T05:16:19;101494.38;;;9.79;100.00
9750;BME280;4914;43.218;27.908;2022-11-15T05:18:46;101502.72;;;9.73;100.00
9750;BME280;4914;43.218;27.908;2022-11-15T05:21:14;101495.44;;;9.76;100.00
9750;BME280;4914;43.218;27.908;2022-11-15T05:23:41;101496.84;;;9.68;100.00
9750;BME280;4914;43.218;27.908;2022-11-15T05:26:08;101501.75;;;9.74;100.00
9750;BME280;4914;43.218;27.908;2022-11-15T05:28:37;101508.97;;;9.72;100.00
9750;BME280;4914;43.218;27.908;2022-11-15T05:31:06;101511.53;;;9.73;100.00
9750;BME280;4914;43.218;27.908;2022-11-15T05:33:34;101505.53;;;9.70;100.00
9750;BME280;4914;43.218;27.908;2022-11-15T05:36:04;101510.31;;;9.79;100.00
9750;BME280;4914;43.218;27.908;2022-11-15T05:38:34;101504.47;;;9.88;100.00
9750;BME280;4914;43.218;27.908;2022-11-15T05:41:01;101495.66;;;9.87;100.00
9750;BME280;4914;43.218;27.908;2022-11-15T05:43:31;101501.91;;;9.86;100.00
9750;BME280;4914;43.218;27.908;2022-11-15T05:46:02;101499.34;;;9.85;100.00
9750;BME280;4914;43.218;27.908;2022-11-15T05:48:31;101502.06;;;9.83;100.00
9750;BME280;4914;43.218;27.908;2022-11-15T05:50:58;101500.09;;;9.87;100.00
9750;BME280;4914;43.218;27.908;2022-11-15T05:53:26;101504.63;;;9.85;100.00
9750;BME280;4914;43.218;27.908;2022-11-15T05:55:53;101504.63;;;9.85;100.00
9750;BME280;4914;43.218;27.908;2022-11-15T05:58:20;101504.47;;;9.88;100.00
9750;BME280;4914;43.218;27.908;2022-11-15T06:00:47;101504.28;;;9.91;100.00
9750;BME280;4914;43.218;27.908;2022-11-15T06:03:16;101504.84;;;9.96;100.00
9750;BME280;4914;43.218;27.908;2022-11-15T06:05:43;101503.44;;;10.04;100.00
9750;BME280;4914;43.218;27.908;2022-11-15T06:08:09;101502.16;;;10.12;100.00
9750;BME280;4914;43.218;27.908;2022-11-15T06:10:36;101502.97;;;10.12;100.00
9750;BME280;4914;43.218;27.908;2022-11-15T06:13:04;101508.72;;;10.20;100.00
9750;BME280;4914;43.218;27.908;2022-11-15T06:15:32;101514.41;;;10.28;100.00
9750;BME280;4914;43.218;27.908;2022-11-15T06:17:58;101506.63;;;10.39;100.00
9750;BME280;4914;43.218;27.908;2022-11-15T06:20:27;101508.50;;;10.37;100.00
9750;BME280;4914;43.218;27.908;2022-11-15T06:22:57;101507.00;;;10.33;100.00
9750;BME280;4914;43.218;27.908;2022-11-15T06:25:25;101507.66;;;10.37;100.00
9750;BME280;4914;43.218;27.908;2022-11-15T06:27:51;101500.09;;;10.31;100.00
9750;BME280;4914;43.218;27.908;2022-11-15T06:30:18;101504.16;;;10.36;100.00
9750;BME280;4914;43.218;27.908;2022-11-15T06:32:45;101502.84;;;10.43;100.00
9750;BME280;4914;43.218;27.908;2022-11-15T06:35:12;101509.44;;;10.50;100.00
9750;BME280;4914;43.218;27.908;2022-11-15T06:37:41;101507.56;;;10.53;100.00
9750;BME280;4914;43.218;27.908;2022-11-15T06:40:09;101505.28;;;10.61;100.00
9750;BME280;4914;43.218;27.908;2022-11-15T06:42:36;101510.09;;;10.82;100.00
9750;BME280;4914;43.218;27.908;2022-11-15T06:45:04;101500.72;;;10.77;100.00
9750;BME280;4914;43.218;27.908;2022-11-15T06:47:31;101504.41;;;10.88;100.00
9750;BME280;4914;43.218;27.908;2022-11-15T06:49:58;101504.94;;;10.93;100.00
9750;BME280;4914;43.218;27.908;2022-11-15T06:52:25;101496.69;;;10.84;100.00
9750;BME280;4914;43.218;27.908;2022-11-15T06:54:53;101503.91;;;10.96;100.00
9750;BME280;4914;43.218;27.908;2022-11-15T06:57:20;101490.78;;;11.07;100.00
9750;BME280;4914;43.218;27.908;2022-11-15T06:59:47;101504.06;;;11.07;100.00
9750;BME280;4914;43.218;27.908;2022-11-15T07:02:13;101508.81;;;11.02;100.00
9750;BME280;4914;43.218;27.908;2022-11-15T07:04:40;101504.06;;;11.07;100.00
9750;BME280;4914;43.218;27.908;2022-11-15T07:07:07;101507.38;;;11.11;100.00
9750;BME280;4914;43.218;27.908;2022-11-15T07:09:34;101502.94;;;10.97;100.00
9750;BME280;4914;43.218;27.908;2022-11-15T07:12:02;101503.63;;;11.13;100.00
9750;BME280;4914;43.218;27.908;2022-11-15T07:14:29;101509.28;;;11.35;100.00
9750;BME280;4914;43.218;27.908;2022-11-15T07:16:56;101494.03;;;11.25;100.00
9750;BME280;4914;43.218;27.908;2022-11-15T07:19:23;101492.41;;;11.22;100.00
9750;BME280;4914;43.218;27.908;2022-11-15T07:21:50;101495.38;;;11.18;100.00
9750;BME280;4914;43.218;27.908;2022-11-15T07:24:16;101492.97;;;11.27;100.00
9750;BME280;4914;43.218;27.908;2022-11-15T07:26:43;101493.81;;;11.28;100.00
9750;BME280;4914;43.218;27.908;2022-11-15T07:29:11;101496.28;;;11.31;100.00
9750;BME280;4914;43.218;27.908;2022-11-15T07:31:38;101489.88;;;11.21;100.00
9750;BME280;4914;43.218;27.908;2022-11-15T07:34:05;101497.94;;;11.19;100.00
9750;BME280;4914;43.218;27.908;2022-11-15T07:36:32;101486.91;;;11.25;100.00
9750;BME280;4914;43.218;27.908;2022-11-15T07:38:59;101491.88;;;11.17;100.00
9750;BME280;4914;43.218;27.908;2022-11-15T07:41:26;101497.47;;;11.13;100.00
9750;BME280;4914;43.218;27.908;2022-11-15T07:43:53;101488.72;;;10.98;100.00
9750;BME280;4914;43.218;27.908;2022-11-15T07:46:21;101493.88;;;11.14;100.00
9750;BME280;4914;43.218;27.908;2022-11-15T07:48:48;101487.31;;;11.19;100.00
9750;BME280;4914;43.218;27.908;2022-11-15T07:51:16;101485.66;;;11.31;100.00
9750;BME280;4914;43.218;27.908;2022-11-15T07:53:43;101478.66;;;11.43;100.00
9750;BME280;4914;43.218;27.908;2022-11-15T07:56:10;101489.09;;;11.46;100.00
9750;BME280;4914;43.218;27.908;2022-11-15T07:58:37;101487.31;;;11.46;100.00
9750;BME280;4914;43.218;27.908;2022-11-15T08:01:04;101476.28;;;11.38;100.00
9750;BME280;4914;43.218;27.908;2022-11-15T08:03:33;101488.88;;;11.49;100.00
9750;BME280;4914;43.218;27.908;2022-11-15T08:06:00;101493.44;;;11.47;100.00
9750;BME280;4914;43.218;27.908;2022-11-15T08:08:27;101497.19;;;11.57;100.00
9750;BME280;4914;43.218;27.908;2022-11-15T08:10:54;101493.50;;;11.72;100.00
9750;BME280;4914;43.218;27.908;2022-11-15T08:13:20;101489.84;;;11.74;100.00
9750;BME280;4914;43.218;27.908;2022-11-15T08:15:47;101498.81;;;11.59;100.00
9750;BME280;4914;43.218;27.908;2022-11-15T08:18:15;101496.66;;;11.52;100.00
9750;BME280;4914;43.218;27.908;2022-11-15T08:20:44;101487.19;;;11.48;100.00
9750;BME280;4914;43.218;27.908;2022-11-15T08:23:11;101483.78;;;11.46;100.00
9750;BME280;4914;43.218;27.908;2022-11-15T08:25:39;101485.47;;;11.47;100.00
9750;BME280;4914;43.218;27.908;2022-11-15T08:28:07;101488.78;;;11.50;100.00
9750;BME280;4914;43.218;27.908;2022-11-15T08:30:36;101474.81;;;11.34;100.00
9750;BME280;4914;43.218;27.908;2022-11-15T08:33:03;101483.53;;;11.36;100.00
9750;BME280;4914;43.218;27.908;2022-11-15T08:35:30;101471.63;;;11.42;100.00
9750;BME280;4914;43.218;27.908;2022-11-15T08:37:58;101482.22;;;11.56;100.00
9750;BME280;4914;43.218;27.908;2022-11-15T08:43:10;101481.28;;;11.69;100.00
9750;BME280;4914;43.218;27.908;2022-11-15T08:45:37;101474.28;;;11.81;100.00
9750;BME280;4914;43.218;27.908;2022-11-15T08:48:04;101475.59;;;11.88;100.00
9750;BME280;4914;43.218;27.908;2022-11-15T08:50:31;101468.28;;;11.65;100.00
9750;BME280;4914;43.218;27.908;2022-11-15T08:53:04;101463.06;;;11.63;100.00
9750;BME280;4914;43.218;27.908;2022-11-15T08:55:31;101461.97;;;11.53;100.00
9750;BME280;4914;43.218;27.908;2022-11-15T08:57:58;101456.75;;;11.52;100.00
9750;BME280;4914;43.218;27.908;2022-11-15T09:00:24;101452.97;;;11.56;100.00
9750;BME280;4914;43.218;27.908;2022-11-15T09:02:51;101445.19;;;11.65;100.00
9750;BME280;4914;43.218;27.908;2022-11-15T09:05:18;101448.91;;;11.63;100.00
9750;BME280;4914;43.218;27.908;2022-11-15T09:07:45;101441.47;;;11.55;100.00
9750;BME280;4914;43.218;27.908;2022-11-15T09:10:13;101445.06;;;11.67;100.00
9750;BME280;4914;43.218;27.908;2022-11-15T09:12:40;101438.84;;;11.80;100.00
9750;BME280;4914;43.218;27.908;2022-11-15T09:15:08;101437.16;;;11.92;100.00
9750;BME280;4914;43.218;27.908;2022-11-15T09:17:35;101431.28;;;11.87;100.00
9750;BME280;4914;43.218;27.908;2022-11-15T09:20:02;101421.28;;;11.91;100.00
9750;BME280;4914;43.218;27.908;2022-11-15T09:22:29;101426.50;;;11.92;100.00
9750;BME280;4914;43.218;27.908;2022-11-15T09:24:56;101432.78;;;11.91;100.00
9750;BME280;4914;43.218;27.908;2022-11-15T09:27:27;101420.44;;;12.03;100.00
9750;BME280;4914;43.218;27.908;2022-11-15T09:29:54;101421.81;;;11.96;100.00
9750;BME280;4914;43.218;27.908;2022-11-15T09:32:21;101416.50;;;12.08;100.00
9750;BME280;4914;43.218;27.908;2022-11-15T09:34:48;101404.19;;;12.18;100.00
9750;BME280;4914;43.218;27.908;2022-11-15T09:37:15;101405.13;;;12.43;100.00
9750;BME280;4914;43.218;27.908;2022-11-15T09:39:42;101402.78;;;12.51;100.00
9750;BME280;4914;43.218;27.908;2022-11-15T09:42:23;101406.00;;;12.91;100.00
9750;BME280;4914;43.218;27.908;2022-11-15T09:45:10;101404.25;;;12.79;100.00
9750;BME280;4914;43.218;27.908;2022-11-15T09:50:34;101398.34;;;13.10;100.00
9750;BME280;4914;43.218;27.908;2022-11-15T09:53:03;101397.84;;;12.81;100.00
9750;BME280;4914;43.218;27.908;2022-11-15T09:55:44;101392.47;;;12.94;100.00
9750;BME280;4914;43.218;27.908;2022-11-15T09:58:18;101389.91;;;12.92;100.00
9750;BME280;4914;43.218;27.908;2022-11-15T10:00:51;101392.69;;;13.15;100.00
9750;BME280;4914;43.218;27.908;2022-11-15T10:03:24;101381.00;;;13.39;100.00
9750;BME280;4914;43.218;27.908;2022-11-15T10:05:54;101385.91;;;13.57;100.00
9750;BME280;4914;43.218;27.908;2022-11-15T10:08:33;101377.81;;;13.69;100.00
9750;BME280;4914;43.218;27.908;2022-11-15T10:11:05;101370.88;;;13.56;100.00
9750;BME280;4914;43.218;27.908;2022-11-15T10:13:35;101375.75;;;13.62;100.00
9750;BME280;4914;43.218;27.908;2022-11-15T10:19:02;101370.19;;;13.30;100.00
9750;BME280;4914;43.218;27.908;2022-11-15T10:21:39;101365.41;;;13.46;100.00
9750;BME280;4914;43.218;27.908;2022-11-15T10:24:11;101349.78;;;13.64;100.00
9750;BME280;4914;43.218;27.908;2022-11-15T10:26:38;101350.63;;;13.86;100.00
9750;BME280;4914;43.218;27.908;2022-11-15T10:29:05;101345.53;;;14.06;100.00
9750;BME280;4914;43.218;27.908;2022-11-15T10:31:33;101347.47;;;14.04;100.00
9750;BME280;4914;43.218;27.908;2022-11-15T10:34:16;101342.25;;;13.91;100.00
9750;BME280;4914;43.218;27.908;2022-11-15T10:36:45;101335.09;;;13.80;100.00
9750;BME280;4914;43.218;27.908;2022-11-15T10:39:13;101338.63;;;13.81;100.00
9750;BME280;4914;43.218;27.908;2022-11-15T10:41:41;101326.97;;;13.82;100.00
9750;BME280;4914;43.218;27.908;2022-11-15T10:44:21;101322.47;;;13.82;100.00
9750;BME280;4914;43.218;27.908;2022-11-15T10:47:05;101324.16;;;13.72;100.00
9750;BME280;4914;43.218;27.908;2022-11-15T10:49:33;101315.19;;;13.62;100.00
9750;BME280;4914;43.218;27.908;2022-11-15T10:52:02;101325.41;;;13.79;100.00
9750;BME280;4914;43.218;27.908;2022-11-15T10:54:35;101311.56;;;13.74;100.00
9750;BME280;4914;43.218;27.908;2022-11-15T10:57:06;101317.00;;;13.73;100.00
9750;BME280;4914;43.218;27.908;2022-11-15T10:59:36;101309.72;;;13.97;100.00
9750;BME280;4914;43.218;27.908;2022-11-15T11:02:26;101307.69;;;13.89;100.00
9750;BME280;4914;43.218;27.908;2022-11-15T11:04:54;101305.47;;;13.72;100.00
9750;BME280;4914;43.218;27.908;2022-11-15T11:07:23;101296.75;;;13.70;100.00
9750;BME280;4914;43.218;27.908;2022-11-15T11:09:57;101292.38;;;13.58;100.00
9750;BME280;4914;43.218;27.908;2022-11-15T11:12:27;101292.25;;;13.48;100.00
9750;BME280;4914;43.218;27.908;2022-11-15T11:14:55;101283.28;;;13.83;100.00
9750;BME280;4914;43.218;27.908;2022-11-15T11:17:28;101283.28;;;13.94;100.00
9750;BME280;4914;43.218;27.908;2022-11-15T11:20:02;101277.44;;;14.00;100.00
9750;BME280;4914;43.218;27.908;2022-11-15T11:22:38;101269.22;;;13.70;100.00
9750;BME280;4914;43.218;27.908;2022-11-15T11:25:19;101267.59;;;14.01;100.00
9750;BME280;4914;43.218;27.908;2022-11-15T11:27:59;101264.38;;;13.75;100.00
9750;BME280;4914;43.218;27.908;2022-11-15T11:30:38;101258.91;;;13.65;100.00
9750;BME280;4914;43.218;27.908;2022-11-15T11:33:16;101253.91;;;13.83;100.00
9750;BME280;4914;43.218;27.908;2022-11-15T11:35:54;101246.75;;;13.72;100.00
9750;BME280;4914;43.218;27.908;2022-11-15T11:38:38;101245.09;;;13.60;100.00
9750;BME280;4914;43.218;27.908;2022-11-15T11:41:15;101241.19;;;13.64;100.00
9750;BME280;4914;43.218;27.908;2022-11-15T11:43:55;101240.22;;;13.65;100.00
9750;BME280;4914;43.218;27.908;2022-11-15T11:46:38;101244.50;;;14.11;100.00
9750;BME280;4914;43.218;27.908;2022-11-15T11:49:18;101238.00;;;13.92;100.00
9750;BME280;4914;43.218;27.908;2022-11-15T11:51:52;101241.59;;;14.14;100.00
9750;BME280;4914;43.218;27.908;2022-11-15T11:54:25;101236.28;;;14.14;100.00
9750;BME280;4914;43.218;27.908;2022-11-15T11:56:58;101238.47;;;13.97;100.00
9750;BME280;4914;43.218;27.908;2022-11-15T11:59:33;101224.84;;;14.12;100.00
9750;BME280;4914;43.218;27.908;2022-11-15T12:02:11;101219.44;;;13.91;100.00
9750;BME280;4914;43.218;27.908;2022-11-15T12:04:45;101223.13;;;14.22;100.00
9750;BME280;4914;43.218;27.908;2022-11-15T12:07:19;101221.47;;;14.53;100.00
9750;BME280;4914;43.218;27.908;2022-11-15T12:09:53;101217.50;;;14.36;100.00
9750;BME280;4914;43.218;27.908;2022-11-15T12:12:27;101214.25;;;14.53;100.00
9750;BME280;4914;43.218;27.908;2022-11-15T12:15:00;101215.00;;;14.23;100.00
9750;BME280;4914;43.218;27.908;2022-11-15T12:17:30;101206.97;;;14.55;100.00
9750;BME280;4914;43.218;27.908;2022-11-15T12:20:02;101214.81;;;14.47;100.00
9750;BME280;4914;43.218;27.908;2022-11-15T12:22:36;101204.03;;;14.37;100.00
9750;BME280;4914;43.218;27.908;2022-11-15T12:25:08;101203.53;;;14.32;100.00
9750;BME280;4914;43.218;27.908;2022-11-15T12:27:43;101200.97;;;14.31;100.00
9750;BME280;4914;43.218;27.908;2022-11-15T12:30:12;101201.00;;;14.20;100.00
9750;BME280;4914;43.218;27.908;2022-11-15T12:32:50;101189.63;;;14.18;100.00
9750;BME280;4914;43.218;27.908;2022-11-15T12:35:26;101182.94;;;14.23;100.00
9750;BME280;4914;43.218;27.908;2022-11-15T12:37:54;101186.19;;;14.38;100.00
9750;BME280;4914;43.218;27.908;2022-11-15T12:40:32;101178.09;;;14.49;100.00
9750;BME280;4914;43.218;27.908;2022-11-15T12:43:03;101171.91;;;14.90;100.00
9750;BME280;4914;43.218;27.908;2022-11-15T12:45:32;101163.59;;;14.72;100.00
9750;BME280;4914;43.218;27.908;2022-11-15T12:48:46;101165.53;;;14.81;100.00
9750;BME280;4914;43.218;27.908;2022-11-15T12:51:14;101178.56;;;14.54;100.00
9750;BME280;4914;43.218;27.908;2022-11-15T12:53:41;101174.25;;;14.63;100.00
9750;BME280;4914;43.218;27.908;2022-11-15T12:58:54;101168.53;;;14.67;100.00
9750;BME280;4914;43.218;27.908;2022-11-15T13:01:57;101160.38;;;14.48;100.00
9750;BME280;4914;43.218;27.908;2022-11-15T13:04:27;101155.03;;;14.48;100.00
9750;BME280;4914;43.218;27.908;2022-11-15T13:06:57;101156.53;;;14.41;100.00
9750;BME280;4914;43.218;27.908;2022-11-15T13:12:50;101150.94;;;14.33;100.00
9750;BME280;4914;43.218;27.908;2022-11-15T13:15:54;101152.41;;;14.37;100.00
9750;BME280;4914;43.218;27.908;2022-11-15T13:18:36;101138.69;;;14.30;100.00
9750;BME280;4914;43.218;27.908;2022-11-15T13:21:18;101142.97;;;14.22;100.00
9750;BME280;4914;43.218;27.908;2022-11-15T13:24:04;101140.34;;;14.11;100.00
9750;BME280;4914;43.218;27.908;2022-11-15T13:26:38;101129.19;;;14.06;100.00
9750;BME280;4914;43.218;27.908;2022-11-15T13:29:14;101121.84;;;13.98;100.00